Time;durP1;ratioP1;P1;durP2;ratioP2;P2;SDS_P1;SDS_P2;PMS_P1;PMS_P2;Temp;Humidity;BMP_temperature;BMP_pressure;BME280_temperature;BME280_humidity;BME280_pressure;Samples;Min_cycle;Max_cycle;Signal;HPM_P1;HPM_P2
2022/04/02 00:02:01;;;;;;;1.35;1.10;;;;;;;;;;4909032;29;20080;-74
2022/04/02 00:04:27;;;;;;;2.72;1.05;;;;;;;;;;4912508;29;20116;-71
2022/04/02 00:06:54;;;;;;;1.88;1.08;;;;;;;;;;4913240;29;20040;-75
2022/04/02 00:09:21;;;;;;;4.13;1.20;;;;;;;;;;4911026;29;20048;-71
2022/04/02 00:11:47;;;;;;;1.73;1.00;;;;;;;;;;4913165;29;20100;-75
2022/04/02 00:14:14;;;;;;;1.98;1.10;;;;;;;;;;4908002;29;20074;-74
2022/04/02 00:16:40;;;;;;;2.20;1.08;;;;;;;;;;4912041;29;20052;-74
2022/04/02 00:19:07;;;;;;;2.33;1.08;;;;;;;;;;4910599;29;20140;-70
2022/04/02 00:21:34;;;;;;;2.70;1.00;;;;;;;;;;4912325;29;20056;-73
2022/04/02 00:24:00;;;;;;;1.42;0.88;;;;;;;;;;4914158;29;20051;-74
2022/04/02 00:26:26;;;;;;;3.03;1.20;;;;;;;;;;4913454;29;20059;-71
2022/04/02 00:28:52;;;;;;;2.95;1.00;;;;;;;;;;4914103;29;20068;-70
2022/04/02 00:31:20;;;;;;;2.88;1.20;;;;;;;;;;4911645;29;20040;-70
2022/04/02 00:33:48;;;;;;;1.58;1.10;;;;;;;;;;4912599;29;20051;-73
2022/04/02 00:36:15;;;;;;;1.42;1.10;;;;;;;;;;4913403;29;20048;-76
2022/04/02 00:38:41;;;;;;;1.58;0.93;;;;;;;;;;4912921;29;20052;-71
2022/04/02 00:41:09;;;;;;;1.42;0.90;;;;;;;;;;4914845;29;20044;-71
2022/04/02 00:43:42;;;;;;;5.95;1.10;;;;;;;;;;4913294;29;20052;-73
2022/04/02 00:46:11;;;;;;;1.67;0.98;;;;;;;;;;4909530;29;20382;-72
2022/04/02 00:48:37;;;;;;;1.83;1.10;;;;;;;;;;4910169;29;20494;-75
2022/04/02 00:51:06;;;;;;;1.67;1.05;;;;;;;;;;4911707;29;20383;-71
2022/04/02 00:53:36;;;;;;;1.05;0.80;;;;;;;;;;4913872;29;20059;-69
2022/04/02 00:56:04;;;;;;;1.70;1.10;;;;;;;;;;4910691;29;20505;-71
2022/04/02 00:58:30;;;;;;;2.97;1.23;;;;;;;;;;4910834;29;20044;-70
2022/04/02 01:00:56;;;;;;;2.13;1.00;;;;;;;;;;4911125;29;20470;-71
2022/04/02 01:03:22;;;;;;;2.53;1.15;;;;;;;;;;4909015;29;20401;-78
2022/04/02 01:05:48;;;;;;;3.05;1.25;;;;;;;;;;4900148;29;20403;-72
2022/04/02 01:08:14;;;;;;;1.00;0.93;;;;;;;;;;4910295;29;20052;-74
2022/04/02 01:10:40;;;;;;;3.03;1.40;;;;;;;;;;4910553;29;20079;-70
2022/04/02 01:13:08;;;;;;;3.72;1.20;;;;;;;;;;4902095;29;20497;-78
2022/04/02 01:15:35;;;;;;;3.45;1.10;;;;;;;;;;4900480;29;20219;-75
2022/04/02 01:18:01;;;;;;;2.03;1.40;;;;;;;;;;4909167;29;20494;-75
2022/04/02 01:20:29;;;;;;;1.70;1.20;;;;;;;;;;4908018;29;20052;-70
2022/04/02 01:22:56;;;;;;;2.88;1.40;;;;;;;;;;4907540;29;20481;-70
2022/04/02 01:25:22;;;;;;;2.80;1.48;;;;;;;;;;4912052;29;20390;-71
2022/04/02 01:27:48;;;;;;;2.75;1.15;;;;;;;;;;4909390;29;20076;-71
2022/04/02 01:30:15;;;;;;;4.80;1.55;;;;;;;;;;4911313;29;20414;-71
2022/04/02 01:32:42;;;;;;;2.03;1.20;;;;;;;;;;4910449;29;20048;-71
2022/04/02 01:35:09;;;;;;;2.17;1.40;;;;;;;;;;4909226;29;20056;-75
2022/04/02 01:37:36;;;;;;;2.45;1.20;;;;;;;;;;4910805;29;20484;-74
2022/04/02 01:40:04;;;;;;;2.35;1.13;;;;;;;;;;4910821;29;20074;-76
2022/04/02 01:42:31;;;;;;;2.80;1.20;;;;;;;;;;4908012;29;20151;-70
2022/04/02 01:44:57;;;;;;;3.80;1.30;;;;;;;;;;4909174;29;20059;-70
2022/04/02 01:47:23;;;;;;;3.85;1.20;;;;;;;;;;4905575;29;21266;-74
2022/04/02 01:49:49;;;;;;;1.30;0.95;;;;;;;;;;4909315;29;20055;-70
2022/04/02 01:52:19;;;;;;;1.95;1.38;;;;;;;;;;4904922;29;20382;-76
2022/04/02 01:54:46;;;;;;;2.63;1.40;;;;;;;;;;4908860;29;20072;-72
2022/04/02 01:57:13;;;;;;;2.38;1.40;;;;;;;;;;4910608;29;20056;-70
2022/04/02 01:59:40;;;;;;;2.35;1.20;;;;;;;;;;4910422;29;20120;-80
2022/04/02 02:02:07;;;;;;;2.75;1.20;;;;;;;;;;4910959;29;20474;-70
2022/04/02 02:04:33;;;;;;;2.30;1.40;;;;;;;;;;4907885;29;20406;-70
2022/04/02 02:07:00;;;;;;;4.00;1.30;;;;;;;;;;4909582;29;20052;-72
2022/04/02 02:09:26;;;;;;;3.85;1.40;;;;;;;;;;4909719;29;20071;-70
2022/04/02 02:11:52;;;;;;;4.53;1.15;;;;;;;;;;4910986;29;20040;-69
2022/04/02 02:14:18;;;;;;;5.03;1.60;;;;;;;;;;4909446;29;20051;-73
2022/04/02 02:16:44;;;;;;;5.72;1.67;;;;;;;;;;4906999;29;20056;-72
2022/04/02 02:19:09;;;;;;;4.07;1.48;;;;;;;;;;4902225;29;20505;-70
2022/04/02 02:21:35;;;;;;;2.45;1.70;;;;;;;;;;4911155;29;20566;-70
2022/04/02 02:24:04;;;;;;;2.17;1.30;;;;;;;;;;4910376;29;20044;-70
2022/04/02 02:26:30;;;;;;;2.53;1.88;;;;;;;;;;4909576;29;20075;-69
2022/04/02 02:28:56;;;;;;;3.28;1.58;;;;;;;;;;4910083;29;20058;-69
2022/04/02 02:31:22;;;;;;;2.92;1.30;;;;;;;;;;4908472;29;20051;-74
2022/04/02 02:36:32;;;;;;;4.32;1.33;;;;;;;;;;4905521;29;20051;-73
2022/04/02 02:38:59;;;;;;;2.72;1.27;;;;;;;;;;4910392;29;20158;-69
2022/04/02 02:41:25;;;;;;;1.90;1.25;;;;;;;;;;4907528;29;20052;-72
2022/04/02 02:43:51;;;;;;;4.43;1.60;;;;;;;;;;4909526;29;20058;-72
2022/04/02 02:46:18;;;;;;;1.10;0.93;;;;;;;;;;4911468;29;20052;-73
2022/04/02 02:48:45;;;;;;;3.40;1.10;;;;;;;;;;4909978;29;20454;-72
2022/04/02 02:51:11;;;;;;;2.10;1.48;;;;;;;;;;4910253;29;20047;-72
2022/04/02 02:53:38;;;;;;;2.40;1.10;;;;;;;;;;4908736;29;20063;-70
2022/04/02 02:56:04;;;;;;;3.25;1.30;;;;;;;;;;4901897;29;20494;-71
2022/04/02 02:58:30;;;;;;;3.15;1.05;;;;;;;;;;4907715;29;20054;-69
2022/04/02 03:00:55;;;;;;;4.53;1.30;;;;;;;;;;4906951;29;20044;-71
2022/04/02 03:03:22;;;;;;;2.80;1.27;;;;;;;;;;4907521;29;20036;-75
2022/04/02 03:05:49;;;;;;;2.05;1.10;;;;;;;;;;4902395;29;20048;-77
2022/04/02 03:08:16;;;;;;;3.63;1.33;;;;;;;;;;4910034;29;20051;-71
2022/04/02 03:10:44;;;;;;;2.20;1.30;;;;;;;;;;4911782;29;20104;-71
2022/04/02 03:13:10;;;;;;;5.22;1.48;;;;;;;;;;4908874;29;20044;-73
2022/04/02 03:15:36;;;;;;;4.05;1.10;;;;;;;;;;4908235;29;20094;-71
2022/04/02 03:18:07;;;;;;;5.90;1.50;;;;;;;;;;4912153;29;20040;-70
2022/04/02 03:20:34;;;;;;;2.78;1.30;;;;;;;;;;4913180;29;20059;-72
2022/04/02 03:23:00;;;;;;;2.55;1.10;;;;;;;;;;4910384;29;20048;-70
2022/04/02 03:25:26;;;;;;;1.63;1.13;;;;;;;;;;4911795;29;20122;-72
2022/04/02 03:27:53;;;;;;;2.47;1.20;;;;;;;;;;4908905;29;20075;-76
2022/04/02 03:30:21;;;;;;;4.10;1.38;;;;;;;;;;4910537;29;20274;-71
2022/04/02 03:32:48;;;;;;;5.25;1.40;;;;;;;;;;4911104;29;20147;-71
2022/04/02 03:35:15;;;;;;;2.15;1.15;;;;;;;;;;4911677;29;20071;-71
2022/04/02 03:37:44;;;;;;;3.60;1.00;;;;;;;;;;4911399;29;20074;-74
2022/04/02 03:40:15;;;;;;;4.65;1.20;;;;;;;;;;4907404;29;20044;-71
2022/04/02 03:42:44;;;;;;;1.90;1.30;;;;;;;;;;4905541;29;20501;-73
2022/04/02 03:45:13;;;;;;;3.25;1.60;;;;;;;;;;4902724;29;20048;-70
2022/04/02 03:47:40;;;;;;;2.50;1.60;;;;;;;;;;4908282;29;20054;-71
2022/04/02 03:50:07;;;;;;;6.78;2.00;;;;;;;;;;4914082;29;20108;-73
2022/04/02 03:52:33;;;;;;;2.88;1.33;;;;;;;;;;4911537;29;20446;-75
2022/04/02 03:54:59;;;;;;;4.90;1.70;;;;;;;;;;4912701;29;20044;-69
2022/04/02 03:57:25;;;;;;;2.47;1.42;;;;;;;;;;4909282;29;20062;-71
2022/04/02 03:59:51;;;;;;;5.53;1.48;;;;;;;;;;4909720;29;20064;-72
2022/04/02 04:02:17;;;;;;;4.85;2.00;;;;;;;;;;4912115;29;20150;-75
2022/04/02 04:04:43;;;;;;;2.28;1.30;;;;;;;;;;4913216;29;20513;-72
2022/04/02 04:07:09;;;;;;;3.10;1.60;;;;;;;;;;4911623;29;20048;-73
2022/04/02 04:09:37;;;;;;;6.53;1.95;;;;;;;;;;4910707;29;20498;-70
2022/04/02 04:12:03;;;;;;;1.95;1.30;;;;;;;;;;4912834;29;20410;-74
2022/04/02 04:14:29;;;;;;;3.20;1.50;;;;;;;;;;4910956;29;20100;-70
2022/04/02 04:16:55;;;;;;;3.60;1.60;;;;;;;;;;4912780;29;20061;-70
2022/04/02 04:19:22;;;;;;;2.70;1.33;;;;;;;;;;4910957;29;20044;-70
2022/04/02 04:21:48;;;;;;;4.03;1.20;;;;;;;;;;4913285;29;20103;-73
2022/04/02 04:24:17;;;;;;;1.85;1.30;;;;;;;;;;4912389;29;20040;-70
2022/04/02 04:26:43;;;;;;;2.78;1.30;;;;;;;;;;4913052;29;20449;-72
2022/04/02 04:29:09;;;;;;;2.72;1.35;;;;;;;;;;4912229;29;20092;-76
2022/04/02 04:31:36;;;;;;;4.30;1.20;;;;;;;;;;4909841;29;20051;-69
2022/04/02 04:34:03;;;;;;;1.55;1.00;;;;;;;;;;4907751;29;20079;-70
2022/04/02 04:36:29;;;;;;;2.70;1.17;;;;;;;;;;4912485;29;20676;-74
2022/04/02 04:38:57;;;;;;;2.25;1.13;;;;;;;;;;4910206;29;20415;-70
2022/04/02 04:41:24;;;;;;;1.73;1.08;;;;;;;;;;4911271;29;20501;-72
2022/04/02 04:43:50;;;;;;;3.10;1.23;;;;;;;;;;4912732;29;20563;-70
2022/04/02 04:46:17;;;;;;;1.40;1.10;;;;;;;;;;4912099;29;20100;-73
2022/04/02 04:48:44;;;;;;;3.72;1.40;;;;;;;;;;4912222;29;20127;-72
2022/04/02 04:51:11;;;;;;;2.47;1.30;;;;;;;;;;4903543;29;20044;-72
2022/04/02 04:53:37;;;;;;;3.17;1.30;;;;;;;;;;4910757;29;20052;-70
2022/04/02 04:56:04;;;;;;;3.60;1.27;;;;;;;;;;4909823;29;20135;-71
2022/04/02 04:58:30;;;;;;;2.85;1.20;;;;;;;;;;4910118;29;20048;-75
2022/04/02 05:00:57;;;;;;;6.63;1.35;;;;;;;;;;4903382;29;20075;-69
2022/04/02 05:03:24;;;;;;;2.72;1.02;;;;;;;;;;4905548;29;20048;-73
2022/04/02 05:05:52;;;;;;;2.22;1.10;;;;;;;;;;4909743;29;20060;-70
2022/04/02 05:08:19;;;;;;;3.28;1.40;;;;;;;;;;4910438;29;20052;-68
2022/04/02 05:10:45;;;;;;;3.13;1.55;;;;;;;;;;4910460;29;20048;-72
2022/04/02 05:13:13;;;;;;;4.20;1.73;;;;;;;;;;4908022;29;20494;-70
2022/04/02 05:15:41;;;;;;;2.67;1.73;;;;;;;;;;4909099;29;20418;-75
2022/04/02 05:18:09;;;;;;;7.65;2.30;;;;;;;;;;4911127;29;20139;-73
2022/04/02 05:20:36;;;;;;;3.80;2.50;;;;;;;;;;4910738;29;20462;-73
2022/04/02 05:23:02;;;;;;;5.00;2.70;;;;;;;;;;4910116;29;20157;-72
2022/04/02 05:25:28;;;;;;;5.43;3.08;;;;;;;;;;4903118;29;20048;-70
2022/04/02 05:27:54;;;;;;;6.78;3.25;;;;;;;;;;4905573;29;20486;-74
2022/04/02 05:30:21;;;;;;;8.10;3.60;;;;;;;;;;4907973;29;20529;-71
2022/04/02 05:32:47;;;;;;;7.65;3.25;;;;;;;;;;4908675;29;20059;-70
2022/04/02 05:35:12;;;;;;;6.05;2.90;;;;;;;;;;4905240;29;20049;-71
2022/04/02 05:37:45;;;;;;;5.95;2.80;;;;;;;;;;4906455;29;20051;-73
2022/04/02 05:40:11;;;;;;;3.95;2.50;;;;;;;;;;4906882;29;20052;-80
2022/04/02 05:42:37;;;;;;;3.40;2.10;;;;;;;;;;4903411;29;20462;-71
2022/04/02 05:45:05;;;;;;;4.80;2.20;;;;;;;;;;4907714;29;20524;-72
2022/04/02 05:47:41;;;;;;;6.55;2.10;;;;;;;;;;4909924;29;20421;-71
2022/04/02 05:50:09;;;;;;;6.50;2.45;;;;;;;;;;4906856;29;20048;-75
2022/04/02 05:52:35;;;;;;;4.40;1.80;;;;;;;;;;4910087;29;20522;-78
2022/04/02 05:55:00;;;;;;;4.00;1.75;;;;;;;;;;4904699;29;20127;-72
2022/04/02 05:57:26;;;;;;;3.10;1.80;;;;;;;;;;4907255;29;20056;-73
2022/04/02 05:59:52;;;;;;;2.85;1.40;;;;;;;;;;4906064;29;20394;-70
2022/04/02 06:02:18;;;;;;;3.90;1.80;;;;;;;;;;4905006;29;20055;-73
2022/04/02 06:04:44;;;;;;;4.75;1.48;;;;;;;;;;4910976;29;20474;-74
2022/04/02 06:07:11;;;;;;;4.32;1.52;;;;;;;;;;4917069;29;20048;-67
2022/04/02 06:09:37;;;;;;;3.30;1.45;;;;;;;;;;4909973;29;20508;-69
2022/04/02 06:12:03;;;;;;;3.22;1.55;;;;;;;;;;4909114;29;20063;-72
2022/04/02 06:14:29;;;;;;;6.18;1.70;;;;;;;;;;4910086;29;20485;-71
2022/04/02 06:16:54;;;;;;;6.60;1.38;;;;;;;;;;4913599;29;20040;-71
2022/04/02 06:19:21;;;;;;;2.85;1.30;;;;;;;;;;4911811;29;20048;-70
2022/04/02 06:21:47;;;;;;;2.92;1.30;;;;;;;;;;4909791;29;20049;-71
2022/04/02 06:24:12;;;;;;;3.75;1.38;;;;;;;;;;4909258;29;20095;-76
2022/04/02 06:26:38;;;;;;;2.20;1.50;;;;;;;;;;4911700;29;20063;-75
2022/04/02 06:29:04;;;;;;;3.88;1.42;;;;;;;;;;4910969;29;20052;-75
2022/04/02 06:31:30;;;;;;;3.22;1.20;;;;;;;;;;4911040;29;20389;-69
2022/04/02 06:33:55;;;;;;;4.63;1.20;;;;;;;;;;4909235;29;20048;-74
2022/04/02 06:36:21;;;;;;;5.05;1.55;;;;;;;;;;4910994;29;20080;-72
2022/04/02 06:38:47;;;;;;;3.38;1.10;;;;;;;;;;4907707;29;20052;-72
2022/04/02 06:41:13;;;;;;;3.65;1.10;;;;;;;;;;4907833;29;20135;-73
2022/04/02 06:43:39;;;;;;;1.52;1.10;;;;;;;;;;4908095;29;20052;-71
2022/04/02 06:46:05;;;;;;;1.92;1.30;;;;;;;;;;4909762;29;20477;-71
2022/04/02 06:48:31;;;;;;;4.35;1.05;;;;;;;;;;4902426;29;20048;-72
2022/04/02 06:50:57;;;;;;;1.80;1.08;;;;;;;;;;4906667;29;20052;-72
2022/04/02 06:53:23;;;;;;;2.13;1.20;;;;;;;;;;4910508;29;20079;-75
2022/04/02 06:55:49;;;;;;;2.42;1.35;;;;;;;;;;4909741;29;20585;-72
2022/04/02 06:58:35;;;;;;;4.22;1.30;;;;;;;;;;4909194;29;20071;-72
2022/04/02 07:01:01;;;;;;;3.95;1.75;;;;;;;;;;4910160;29;20095;-74
2022/04/02 07:03:27;;;;;;;6.18;1.95;;;;;;;;;;4907919;29;20048;-72
2022/04/02 07:05:53;;;;;;;4.30;2.10;;;;;;;;;;4909621;29;20059;-74
2022/04/02 07:08:19;;;;;;;4.82;2.20;;;;;;;;;;4910301;29;20048;-70
2022/04/02 07:10:45;;;;;;;6.68;2.45;;;;;;;;;;4909383;29;20040;-73
2022/04/02 07:13:11;;;;;;;7.38;2.47;;;;;;;;;;4910306;29;20048;-69
2022/04/02 07:15:39;;;;;;;5.60;2.55;;;;;;;;;;4910157;29;20068;-72
2022/04/02 07:18:10;;;;;;;7.13;1.90;;;;;;;;;;4906961;29;20051;-72
2022/04/02 07:20:38;;;;;;;6.88;2.60;;;;;;;;;;4908644;29;20052;-77
2022/04/02 07:23:08;;;;;;;2.10;1.35;;;;;;;;;;4907491;29;20159;-72
2022/04/02 07:25:38;;;;;;;5.45;1.80;;;;;;;;;;4909065;29;20052;-71
2022/04/02 07:28:04;;;;;;;4.15;1.40;;;;;;;;;;4909387;29;20063;-74
2022/04/02 07:30:32;;;;;;;6.75;1.60;;;;;;;;;;4906036;29;20060;-71
2022/04/02 07:32:58;;;;;;;4.03;1.30;;;;;;;;;;4904879;29;20048;-78
2022/04/02 07:35:25;;;;;;;4.00;1.50;;;;;;;;;;4910671;29;20040;-72
2022/04/02 07:38:03;;;;;;;3.58;1.52;;;;;;;;;;4909042;29;20399;-72
2022/04/02 07:40:36;;;;;;;7.10;1.48;;;;;;;;;;4909285;29;20161;-74
2022/04/02 07:43:35;;;;;;;3.47;1.48;;;;;;;;;;4911537;29;20087;-73
2022/04/02 07:46:06;;;;;;;2.65;1.45;;;;;;;;;;4907847;29;20453;-73
2022/04/02 07:48:37;;;;;;;2.70;1.13;;;;;;;;;;4907711;29;20056;-70
2022/04/02 07:51:11;;;;;;;2.22;1.10;;;;;;;;;;4909253;29;20271;-71
2022/04/02 07:53:47;;;;;;;5.60;1.73;;;;;;;;;;4895436;29;20051;-71
2022/04/02 07:56:18;;;;;;;3.25;1.25;;;;;;;;;;4913037;29;20056;-71
2022/04/02 07:58:47;;;;;;;8.38;1.23;;;;;;;;;;4912426;29;20056;-75
2022/04/02 08:01:16;;;;;;;3.70;1.30;;;;;;;;;;4911163;29;20044;-75
2022/04/02 08:03:44;;;;;;;5.80;1.23;;;;;;;;;;4912221;29;20068;-74
2022/04/02 08:06:13;;;;;;;8.73;1.40;;;;;;;;;;4912761;29;20146;-75
2022/04/02 08:08:40;;;;;;;1.40;0.80;;;;;;;;;;4911768;29;20052;-72
2022/04/02 08:11:08;;;;;;;4.22;1.27;;;;;;;;;;4895696;29;20052;-73
2022/04/02 08:13:34;;;;;;;4.07;1.27;;;;;;;;;;4910874;29;20040;-71
2022/04/02 08:16:00;;;;;;;3.10;1.02;;;;;;;;;;4912944;29;20048;-72
2022/04/02 08:18:26;;;;;;;2.33;1.00;;;;;;;;;;4911795;29;20052;-71
2022/04/02 08:20:54;;;;;;;3.67;0.90;;;;;;;;;;4909160;29;20446;-73
2022/04/02 08:23:20;;;;;;;3.75;1.00;;;;;;;;;;4911774;29;20490;-73
2022/04/02 08:26:11;;;;;;;2.58;1.00;;;;;;;;;;4911401;29;20115;-73
2022/04/02 08:28:45;;;;;;;2.70;1.08;;;;;;;;;;4910725;29;20054;-76
2022/04/02 08:31:34;;;;;;;3.22;0.90;;;;;;;;;;4914139;29;20051;-72
2022/04/02 08:34:10;;;;;;;5.65;1.10;;;;;;;;;;4913938;29;20566;-76
2022/04/02 08:36:47;;;;;;;3.17;1.20;;;;;;;;;;4911939;29;20580;-76
2022/04/02 08:39:22;;;;;;;4.05;0.95;;;;;;;;;;4910473;29;20040;-79
2022/04/02 08:42:08;;;;;;;;;;;;;;;;;;4908223;29;20139;-77
2022/04/02 08:44:52;;;;;;;5.72;1.08;;;;;;;;;;4903247;29;19923;-75
2022/04/02 08:47:55;;;;;;;2.83;1.10;;;;;;;;;;4905716;29;20055;-73
2022/04/02 08:50:30;;;;;;;2.47;0.90;;;;;;;;;;4910371;29;20052;-75
2022/04/02 08:53:05;;;;;;;1.60;0.90;;;;;;;;;;4903669;29;20462;-74
2022/04/02 08:55:34;;;;;;;3.70;1.00;;;;;;;;;;4905748;29;20415;-74
2022/04/02 08:58:22;;;;;;;0.98;0.80;;;;;;;;;;4901964;29;20483;-75
2022/04/02 09:01:07;;;;;;;4.78;0.95;;;;;;;;;;4905724;29;20047;-73
2022/04/02 09:04:07;;;;;;;2.78;1.00;;;;;;;;;;4899331;29;20049;-71
2022/04/02 09:07:12;;;;;;;3.53;1.42;;;;;;;;;;4909493;29;20044;-71
2022/04/02 09:10:07;;;;;;;1.50;0.80;;;;;;;;;;4910851;29;20058;-71
2022/04/02 09:12:39;;;;;;;3.03;0.90;;;;;;;;;;4868759;29;20057;-72
2022/04/02 09:15:09;;;;;;;1.20;0.85;;;;;;;;;;4860123;29;20527;-72
2022/04/02 09:18:16;;;;;;;2.67;0.93;;;;;;;;;;4869845;29;20472;-71
2022/04/02 09:21:01;;;;;;;2.25;1.05;;;;;;;;;;4870475;29;20328;-74
2022/04/02 09:24:10;;;;;;;1.15;0.95;;;;;;;;;;4867943;29;20533;-72
2022/04/02 09:26:58;;;;;;;4.20;0.98;;;;;;;;;;4861933;29;20061;-72
2022/04/02 09:30:05;;;;;;;1.05;0.90;;;;;;;;;;4861719;29;20057;-74
2022/04/02 09:33:06;;;;;;;3.97;1.20;;;;;;;;;;4863756;29;20065;-74
2022/04/02 09:36:09;;;;;;;2.63;0.93;;;;;;;;;;4854599;29;20057;-76
2022/04/02 09:38:45;;;;;;;4.07;0.80;;;;;;;;;;4860508;29;20053;-75
2022/04/02 09:41:24;;;;;;;6.80;1.00;;;;;;;;;;4862655;29;20045;-72
2022/04/02 09:44:27;;;;;;;3.33;1.13;;;;;;;;;;4863648;29;20104;-74
2022/04/02 09:47:12;;;;;;;2.90;0.90;;;;;;;;;;4860433;29;20058;-71
2022/04/02 09:49:53;;;;;;;1.15;0.80;;;;;;;;;;4896034;29;20343;-72
2022/04/02 09:52:26;;;;;;;2.38;0.80;;;;;;;;;;4907572;29;20163;-76
2022/04/02 09:55:05;;;;;;;6.28;1.52;;;;;;;;;;4904583;29;20074;-76
2022/04/02 09:58:06;;;;;;;5.18;0.98;;;;;;;;;;4906761;29;20111;-77
2022/04/02 10:00:41;;;;;;;3.75;0.90;;;;;;;;;;4815020;29;20145;-74
2022/04/02 10:03:29;;;;;;;1.70;0.70;;;;;;;;;;4819747;29;20061;-77
2022/04/02 10:06:13;;;;;;;1.23;0.70;;;;;;;;;;4815681;29;20062;-77
2022/04/02 10:08:49;;;;;;;1.85;0.77;;;;;;;;;;4816967;29;20564;-72
2022/04/02 10:11:18;;;;;;;1.13;0.55;;;;;;;;;;4817302;29;20536;-71
2022/04/02 10:13:44;;;;;;;2.97;0.93;;;;;;;;;;4820174;29;20517;-73
2022/04/02 10:16:14;;;;;;;1.77;0.73;;;;;;;;;;4812185;29;20050;-75
2022/04/02 10:18:41;;;;;;;1.48;0.70;;;;;;;;;;4819629;29;20130;-73
2022/04/02 10:21:09;;;;;;;3.70;0.77;;;;;;;;;;4818358;29;20581;-75
2022/04/02 10:23:54;;;;;;;1.00;0.60;;;;;;;;;;4801287;29;20054;-75
2022/04/02 10:26:22;;;;;;;2.42;1.20;;;;;;;;;;4815056;29;20430;-75
2022/04/02 10:28:51;;;;;;;1.27;0.80;;;;;;;;;;4816848;29;20126;-74
2022/04/02 10:31:37;;;;;;;5.03;1.08;;;;;;;;;;4812284;29;20301;-74
2022/04/02 10:34:09;;;;;;;3.63;1.00;;;;;;;;;;4816555;29;20131;-78
2022/04/02 10:36:40;;;;;;;2.20;1.08;;;;;;;;;;4872600;29;20084;-68
2022/04/02 10:39:07;;;;;;;2.08;1.00;;;;;;;;;;4905396;29;20055;-69
2022/04/02 10:41:38;;;;;;;1.92;0.95;;;;;;;;;;4898284;29;20076;-70
2022/04/02 10:44:10;;;;;;;5.18;1.13;;;;;;;;;;4903661;29;20059;-70
2022/04/02 10:46:41;;;;;;;5.93;1.17;;;;;;;;;;4903323;29;20498;-70
2022/04/02 10:49:11;;;;;;;0.65;0.57;;;;;;;;;;4905156;29;20095;-75
2022/04/02 10:51:39;;;;;;;4.78;1.10;;;;;;;;;;4901660;29;20053;-73
2022/04/02 10:54:07;;;;;;;1.83;0.80;;;;;;;;;;4903276;29;20466;-71
2022/04/02 10:56:41;;;;;;;1.50;0.77;;;;;;;;;;4899873;29;20558;-70
2022/04/02 10:59:11;;;;;;;3.10;1.00;;;;;;;;;;4900853;29;20251;-70
2022/04/02 11:01:42;;;;;;;2.83;0.90;;;;;;;;;;4899841;29;20236;-70
2022/04/02 11:04:33;;;;;;;2.33;0.77;;;;;;;;;;4899328;29;20044;-72
2022/04/02 11:07:00;;;;;;;2.05;0.90;;;;;;;;;;4901043;29;20052;-68
2022/04/02 11:09:31;;;;;;;4.03;1.08;;;;;;;;;;4903316;29;20071;-68
2022/04/02 11:12:02;;;;;;;1.95;0.95;;;;;;;;;;4901939;29;20058;-70
2022/04/02 11:14:37;;;;;;;3.45;1.00;;;;;;;;;;4903448;29;20510;-70
2022/04/02 11:17:02;;;;;;;1.77;0.80;;;;;;;;;;4903771;29;20071;-67
2022/04/02 11:22:27;;;;;;;2.55;1.00;;;;;;;;;;4905351;29;20056;-67
2022/04/02 11:25:03;;;;;;;3.92;1.15;;;;;;;;;;4887445;29;20091;-73
2022/04/02 11:27:34;;;;;;;2.63;0.80;;;;;;;;;;4904773;29;20056;-69
2022/04/02 11:30:06;;;;;;;2.65;1.02;;;;;;;;;;4908716;29;20050;-74
2022/04/02 11:32:50;;;;;;;3.00;1.08;;;;;;;;;;4903984;29;20099;-67
2022/04/02 11:35:24;;;;;;;6.10;1.08;;;;;;;;;;4904038;29;20060;-68
2022/04/02 11:37:55;;;;;;;1.80;0.98;;;;;;;;;;4905974;29;20131;-66
2022/04/02 11:40:27;;;;;;;3.05;0.80;;;;;;;;;;4906986;29;20076;-69
2022/04/02 11:42:54;;;;;;;3.53;1.40;;;;;;;;;;4902041;29;20063;-67
2022/04/02 11:45:20;;;;;;;2.65;0.85;;;;;;;;;;4901526;29;20065;-71
2022/04/02 11:47:50;;;;;;;2.45;0.88;;;;;;;;;;4901472;29;20127;-69
2022/04/02 11:50:25;;;;;;;7.32;1.15;;;;;;;;;;4903746;29;20789;-69
2022/04/02 11:52:57;;;;;;;4.88;1.15;;;;;;;;;;4901252;29;20089;-67
2022/04/02 11:55:25;;;;;;;2.88;0.93;;;;;;;;;;4903217;29;20067;-70
2022/04/02 11:58:09;;;;;;;3.90;1.30;;;;;;;;;;4904936;29;20052;-67
2022/04/02 12:00:38;;;;;;;1.67;0.90;;;;;;;;;;4906493;29;20058;-68
2022/04/02 12:03:08;;;;;;;2.67;1.13;;;;;;;;;;4905738;29;20413;-72
2022/04/02 12:05:43;;;;;;;3.47;1.45;;;;;;;;;;4903653;29;20044;-73
2022/04/02 12:08:10;;;;;;;6.78;1.58;;;;;;;;;;4902496;29;20443;-69
2022/04/02 12:10:47;;;;;;;2.28;1.02;;;;;;;;;;4905708;29;20199;-71
2022/04/02 12:13:13;;;;;;;2.50;1.13;;;;;;;;;;4907312;29;20048;-71
2022/04/02 12:15:41;;;;;;;3.15;1.23;;;;;;;;;;4881799;29;20379;-68
2022/04/02 12:18:08;;;;;;;2.03;0.90;;;;;;;;;;4887797;29;20056;-72
2022/04/02 12:20:36;;;;;;;3.22;1.10;;;;;;;;;;4892485;29;20088;-67
2022/04/02 12:23:16;;;;;;;1.80;1.00;;;;;;;;;;4904057;29;20044;-67
2022/04/02 12:25:53;;;;;;;3.75;1.10;;;;;;;;;;4900575;29;20055;-64
2022/04/02 12:28:20;;;;;;;2.65;0.93;;;;;;;;;;4903702;29;20159;-63
2022/04/02 12:30:48;;;;;;;2.53;1.20;;;;;;;;;;4906159;29;20482;-64
2022/04/02 12:33:18;;;;;;;3.28;1.40;;;;;;;;;;4905449;29;20060;-69
2022/04/02 12:35:47;;;;;;;4.35;2.05;;;;;;;;;;4902828;29;20052;-65
2022/04/02 12:38:37;;;;;;;2.75;1.13;;;;;;;;;;4906254;29;20074;-64
2022/04/02 12:41:06;;;;;;;4.20;1.33;;;;;;;;;;4900558;29;20502;-67
2022/04/02 12:43:37;;;;;;;3.72;1.20;;;;;;;;;;4906856;29;20569;-66
2022/04/02 12:46:04;;;;;;;2.25;1.38;;;;;;;;;;4904133;29;20075;-66
2022/04/02 12:48:44;;;;;;;3.05;1.30;;;;;;;;;;4906475;29;20056;-67
2022/04/02 12:51:15;;;;;;;6.32;1.13;;;;;;;;;;4904945;29;20511;-67
2022/04/02 12:53:43;;;;;;;4.13;1.15;;;;;;;;;;4906790;29;20123;-68
2022/04/02 12:56:24;;;;;;;2.65;1.27;;;;;;;;;;4901444;29;20506;-67
2022/04/02 12:58:52;;;;;;;4.93;1.55;;;;;;;;;;4904049;29;20079;-65
2022/04/02 13:01:21;;;;;;;3.75;1.10;;;;;;;;;;4904789;29;20536;-68
2022/04/02 13:03:59;;;;;;;4.70;1.10;;;;;;;;;;4904671;29;20094;-65
2022/04/02 13:06:30;;;;;;;7.35;2.20;;;;;;;;;;4901321;29;20079;-67
2022/04/02 13:08:58;;;;;;;2.60;0.90;;;;;;;;;;4901401;29;20083;-65
2022/04/02 13:11:32;;;;;;;3.40;1.27;;;;;;;;;;4905800;29;20056;-65
2022/04/02 13:14:03;;;;;;;2.47;0.90;;;;;;;;;;4905138;29;20182;-69
2022/04/02 13:16:38;;;;;;;5.43;1.23;;;;;;;;;;4899560;29;20322;-69
2022/04/02 13:21:58;;;;;;;3.05;1.10;;;;;;;;;;4904631;29;20147;-69
2022/04/02 13:24:50;;;;;;;2.05;0.98;;;;;;;;;;4904439;29;20052;-65
2022/04/02 13:27:17;;;;;;;2.42;1.00;;;;;;;;;;4899208;29;20510;-65
2022/04/02 13:30:07;;;;;;;2.30;1.13;;;;;;;;;;4904838;29;20052;-65
2022/04/02 13:33:10;;;;;;;2.83;1.10;;;;;;;;;;4901724;29;20752;-67
2022/04/02 13:35:41;;;;;;;2.97;1.20;;;;;;;;;;4900161;29;20064;-66
2022/04/02 13:38:29;;;;;;;3.33;1.48;;;;;;;;;;4903761;29;20750;-68
2022/04/02 13:40:57;;;;;;;2.75;1.00;;;;;;;;;;4905598;29;20064;-67
2022/04/02 13:43:39;;;;;;;2.25;1.00;;;;;;;;;;4904254;29;20087;-70
2022/04/02 13:46:13;;;;;;;2.35;1.17;;;;;;;;;;4901404;29;20082;-68
2022/04/02 13:48:57;;;;;;;4.22;1.20;;;;;;;;;;4900411;29;20064;-68
2022/04/02 13:51:37;;;;;;;3.43;1.50;;;;;;;;;;4905113;29;20052;-66
2022/04/02 13:54:06;;;;;;;2.75;1.20;;;;;;;;;;4905965;29;20048;-69
2022/04/02 13:56:39;;;;;;;2.10;1.05;;;;;;;;;;4901214;29;20075;-70
2022/04/02 13:59:07;;;;;;;1.65;1.00;;;;;;;;;;4905637;29;20063;-68
2022/04/02 14:01:39;;;;;;;1.80;1.20;;;;;;;;;;4906085;29;20071;-69
2022/04/02 14:04:09;;;;;;;2.35;1.20;;;;;;;;;;4904813;29;20044;-66
2022/04/02 14:06:37;;;;;;;3.63;1.23;;;;;;;;;;4900574;29;20530;-64
2022/04/02 14:09:04;;;;;;;1.33;1.00;;;;;;;;;;4903265;29;20047;-66
2022/04/02 14:11:39;;;;;;;3.47;1.00;;;;;;;;;;4905284;29;20627;-66
2022/04/02 14:14:04;;;;;;;3.40;1.08;;;;;;;;;;4905206;29;20283;-66
2022/04/02 14:16:37;;;;;;;2.15;1.10;;;;;;;;;;4900842;29;20090;-66
2022/04/02 14:19:10;;;;;;;2.08;1.10;;;;;;;;;;4905113;29;20056;-64
2022/04/02 14:21:38;;;;;;;1.63;0.85;;;;;;;;;;4903689;29;20550;-67
2022/04/02 14:24:19;;;;;;;2.25;0.73;;;;;;;;;;4905038;29;20138;-68
2022/04/02 14:27:13;;;;;;;1.23;0.90;;;;;;;;;;4900334;29;20510;-66
2022/04/02 14:29:39;;;;;;;3.63;1.00;;;;;;;;;;4903848;29;20123;-64
2022/04/02 14:32:29;;;;;;;4.10;0.80;;;;;;;;;;4904767;29;20148;-65
2022/04/02 14:35:32;;;;;;;2.22;1.17;;;;;;;;;;4903761;29;20055;-68
2022/04/02 14:38:24;;;;;;;2.67;1.00;;;;;;;;;;4904863;29;20074;-66
2022/04/02 14:41:15;;;;;;;2.50;1.20;;;;;;;;;;4904096;29;20183;-66
2022/04/02 14:44:19;;;;;;;1.77;0.90;;;;;;;;;;4901493;29;20768;-64
2022/04/02 14:46:45;;;;;;;2.28;1.00;;;;;;;;;;4898404;29;20107;-69
2022/04/02 14:49:37;;;;;;;2.13;0.80;;;;;;;;;;4901885;29;20052;-67
2022/04/02 14:52:33;;;;;;;3.08;1.00;;;;;;;;;;4887276;29;20506;-68
2022/04/02 14:55:49;;;;;;;1.95;0.88;;;;;;;;;;4902852;29;20064;-69
2022/04/02 14:58:53;;;;;;;2.55;0.90;;;;;;;;;;4889274;29;20064;-69
2022/04/02 15:02:00;;;;;;;2.03;1.25;;;;;;;;;;4903757;29;20059;-67
2022/04/02 15:04:54;;;;;;;1.38;0.73;;;;;;;;;;4905197;29;20052;-67
2022/04/02 15:08:01;;;;;;;5.05;1.17;;;;;;;;;;4901234;29;20063;-64
2022/04/02 15:10:35;;;;;;;6.38;1.27;;;;;;;;;;4865446;29;20108;-66
2022/04/02 15:13:07;;;;;;;3.28;1.60;;;;;;;;;;4864397;29;21273;-65
2022/04/02 15:15:39;;;;;;;3.75;1.90;;;;;;;;;;4860922;29;20068;-67
2022/04/02 15:18:11;;;;;;;3.65;1.90;;;;;;;;;;4864086;29;20557;-65
2022/04/02 15:20:38;;;;;;;3.33;1.30;;;;;;;;;;4865600;29;20061;-68